Time;durP1;ratioP1;P1;durP2;ratioP2;P2;SDS_P1;SDS_P2;PMS_P1;PMS_P2;Temp;Humidity;BMP_temperature;BMP_pressure;BME280_temperature;BME280_humidity;BME280_pressure;Samples;Min_cycle;Max_cycle;Signal;HPM_P1;HPM_P2
2023/04/27 00:01:41;;;;;;;11.18;4.80;;;;;;;;;;5046403;28;20047;-77
2023/04/27 00:04:08;;;;;;;10.07;4.38;;;;;;;;;;5047561;28;20056;-76
2023/04/27 00:06:34;;;;;;;9.57;4.40;;;;;;;;;;5054332;28;20081;-76
2023/04/27 00:09:00;;;;;;;8.00;4.15;;;;;;;;;;5055254;28;20053;-76
2023/04/27 00:11:26;;;;;;;8.30;3.92;;;;;;;;;;5054758;28;20128;-76
2023/04/27 00:13:52;;;;;;;8.73;4.60;;;;;;;;;;5051236;28;20063;-75
2023/04/27 00:16:18;;;;;;;9.23;4.30;;;;;;;;;;5047005;28;20041;-77
2023/04/27 00:18:44;;;;;;;7.78;4.28;;;;;;;;;;5045356;28;20053;-77
2023/04/27 00:23:47;;;;;;;13.05;5.00;;;;;;;;;;5048437;28;20049;-81
2023/04/27 00:26:13;;;;;;;9.43;5.00;;;;;;;;;;5059164;28;20517;-81
2023/04/27 00:28:39;;;;;;;13.70;5.20;;;;;;;;;;5064330;28;20045;-81
2023/04/27 00:31:05;;;;;;;12.70;5.35;;;;;;;;;;5063617;28;20055;-81
2023/04/27 00:33:31;;;;;;;12.30;4.80;;;;;;;;;;5064203;28;20049;-81
2023/04/27 00:36:00;;;;;;;13.20;4.97;;;;;;;;;;5063665;28;20189;-82
2023/04/27 00:38:27;;;;;;;11.38;5.63;;;;;;;;;;5062177;28;20045;-82
2023/04/27 00:41:00;;;;;;;9.63;5.18;;;;;;;;;;5061980;28;20041;-81
2023/04/27 00:43:26;;;;;;;11.60;5.07;;;;;;;;;;5062119;28;20056;-81
2023/04/27 00:45:52;;;;;;;9.50;5.15;;;;;;;;;;5062779;28;20049;-81
2023/04/27 00:48:18;;;;;;;10.70;5.40;;;;;;;;;;5062479;28;20067;-82
2023/04/27 00:50:44;;;;;;;12.15;5.40;;;;;;;;;;5065594;28;20114;-82
2023/04/27 00:53:10;;;;;;;10.98;5.30;;;;;;;;;;5064128;28;20055;-82
2023/04/27 00:55:37;;;;;;;12.68;5.35;;;;;;;;;;5064242;28;20103;-82
2023/04/27 00:58:03;;;;;;;9.32;5.57;;;;;;;;;;5062281;28;20056;-81
2023/04/27 01:00:29;;;;;;;11.65;5.43;;;;;;;;;;5056370;28;20067;-81
2023/04/27 01:02:55;;;;;;;10.27;5.22;;;;;;;;;;5044800;28;20044;-82
2023/04/27 01:05:23;;;;;;;10.70;5.10;;;;;;;;;;5059405;28;20045;-82
2023/04/27 01:07:49;;;;;;;14.13;5.35;;;;;;;;;;5053675;28;20045;-81
2023/04/27 01:10:15;;;;;;;11.13;5.05;;;;;;;;;;5048176;28;20052;-81
2023/04/27 01:12:41;;;;;;;13.60;5.25;;;;;;;;;;5029543;28;20069;-81
2023/04/27 01:15:07;;;;;;;10.63;5.15;;;;;;;;;;5050255;28;20033;-83
2023/04/27 01:17:33;;;;;;;12.50;5.45;;;;;;;;;;5046858;28;20098;-82
2023/04/27 01:20:01;;;;;;;12.75;5.25;;;;;;;;;;5051618;28;20045;-80
2023/04/27 01:22:27;;;;;;;11.93;5.50;;;;;;;;;;5048229;28;20061;-81
2023/04/27 01:24:53;;;;;;;9.15;5.00;;;;;;;;;;5029738;28;20059;-83
2023/04/27 01:27:19;;;;;;;11.15;5.53;;;;;;;;;;5033919;28;20099;-81
2023/04/27 01:29:45;;;;;;;14.02;5.50;;;;;;;;;;5062623;28;20105;-81
2023/04/27 01:32:11;;;;;;;11.57;5.40;;;;;;;;;;5063114;28;20575;-82
2023/04/27 01:34:37;;;;;;;12.80;4.70;;;;;;;;;;5063446;28;20495;-81
2023/04/27 01:37:04;;;;;;;10.93;6.00;;;;;;;;;;5063225;28;20040;-81
2023/04/27 01:39:30;;;;;;;10.02;5.03;;;;;;;;;;5063419;28;20051;-81
2023/04/27 01:41:56;;;;;;;10.13;5.28;;;;;;;;;;5063418;28;20124;-81
2023/04/27 01:44:22;;;;;;;12.68;5.00;;;;;;;;;;5063180;28;20047;-81
2023/04/27 01:46:49;;;;;;;9.68;5.10;;;;;;;;;;5063519;28;20094;-80
2023/04/27 01:49:15;;;;;;;10.48;5.60;;;;;;;;;;5045515;28;20056;-82
2023/04/27 01:51:41;;;;;;;12.93;5.45;;;;;;;;;;5062354;28;20044;-82
2023/04/27 01:54:07;;;;;;;9.38;5.25;;;;;;;;;;5063705;28;20103;-81
2023/04/27 01:56:33;;;;;;;7.97;4.80;;;;;;;;;;5059822;28;20048;-81
2023/04/27 01:58:59;;;;;;;12.52;5.35;;;;;;;;;;5043033;28;20049;-81
2023/04/27 02:01:26;;;;;;;9.15;5.55;;;;;;;;;;5049680;28;20443;-82
2023/04/27 02:03:52;;;;;;;13.98;5.55;;;;;;;;;;5054414;28;20049;-83
2023/04/27 02:06:18;;;;;;;10.00;5.53;;;;;;;;;;5053844;28;20040;-82
2023/04/27 02:08:44;;;;;;;11.93;5.38;;;;;;;;;;5057178;28;20524;-82
2023/04/27 02:11:10;;;;;;;11.15;5.60;;;;;;;;;;5055874;28;20116;-84
2023/04/27 02:13:36;;;;;;;11.25;5.68;;;;;;;;;;5040896;28;20049;-83
2023/04/27 02:16:03;;;;;;;13.85;5.97;;;;;;;;;;5039520;28;20041;-81
2023/04/27 02:18:31;;;;;;;14.57;6.07;;;;;;;;;;5038756;28;20056;-82
2023/04/27 02:20:57;;;;;;;11.52;5.78;;;;;;;;;;5039839;28;20049;-83
2023/04/27 02:23:23;;;;;;;12.18;5.70;;;;;;;;;;5057634;28;20049;-82
2023/04/27 02:25:50;;;;;;;10.60;5.50;;;;;;;;;;5055091;28;20414;-81
2023/04/27 02:28:16;;;;;;;12.23;5.78;;;;;;;;;;5056728;28;20053;-83
2023/04/27 02:30:42;;;;;;;9.38;5.72;;;;;;;;;;5056775;28;20654;-82
2023/04/27 02:33:08;;;;;;;13.32;6.25;;;;;;;;;;5057943;28;20613;-80
2023/04/27 02:35:34;;;;;;;15.07;5.97;;;;;;;;;;5050450;28;20431;-82
2023/04/27 02:38:00;;;;;;;11.13;6.05;;;;;;;;;;5060730;28;20053;-81
2023/04/27 02:40:26;;;;;;;11.43;5.65;;;;;;;;;;5063224;28;20051;-81
2023/04/27 02:42:52;;;;;;;12.73;6.35;;;;;;;;;;5062693;28;20406;-81
2023/04/27 02:45:18;;;;;;;10.68;5.65;;;;;;;;;;5063142;28;20419;-81
2023/04/27 02:47:44;;;;;;;12.13;5.88;;;;;;;;;;5060448;28;20051;-81
2023/04/27 02:50:12;;;;;;;11.52;5.68;;;;;;;;;;5053272;28;20045;-81
2023/04/27 02:52:38;;;;;;;11.05;6.00;;;;;;;;;;5045242;28;20045;-81
2023/04/27 02:55:05;;;;;;;12.57;5.65;;;;;;;;;;5064636;28;20056;-82
2023/04/27 02:57:31;;;;;;;9.68;5.60;;;;;;;;;;5064033;28;20052;-82
2023/04/27 02:59:57;;;;;;;10.57;5.80;;;;;;;;;;5060440;28;20045;-82
2023/04/27 03:02:23;;;;;;;11.82;6.28;;;;;;;;;;5061974;28;20124;-82
2023/04/27 03:04:54;;;;;;;15.30;6.35;;;;;;;;;;5043784;28;20048;-80
2023/04/27 03:07:20;;;;;;;15.23;6.25;;;;;;;;;;5062461;28;20518;-81
2023/04/27 03:09:46;;;;;;;11.57;6.32;;;;;;;;;;5062947;28;20037;-81
2023/04/27 03:12:14;;;;;;;13.40;6.13;;;;;;;;;;5064223;28;20049;-82
2023/04/27 03:14:40;;;;;;;10.93;6.45;;;;;;;;;;5064148;28;20402;-82
2023/04/27 03:17:06;;;;;;;10.52;6.47;;;;;;;;;;5065896;28;20049;-81
2023/04/27 03:19:32;;;;;;;12.63;6.28;;;;;;;;;;5058966;28;20049;-82
2023/04/27 03:21:58;;;;;;;9.43;6.00;;;;;;;;;;5050297;28;20053;-81
2023/04/27 03:24:24;;;;;;;13.23;6.53;;;;;;;;;;5062089;28;20044;-82
2023/04/27 03:26:51;;;;;;;15.15;6.38;;;;;;;;;;5061548;28;20052;-80
2023/04/27 03:29:18;;;;;;;11.18;5.90;;;;;;;;;;5054167;28;20064;-81
2023/04/27 03:31:44;;;;;;;11.40;6.22;;;;;;;;;;5064272;28;20047;-81
2023/04/27 03:34:10;;;;;;;11.88;6.00;;;;;;;;;;5052858;28;20037;-81
2023/04/27 03:36:36;;;;;;;9.75;5.65;;;;;;;;;;5043557;28;20045;-80
2023/04/27 03:39:02;;;;;;;11.75;6.15;;;;;;;;;;5052003;28;20742;-81
2023/04/27 03:41:28;;;;;;;11.75;5.82;;;;;;;;;;5032034;28;20096;-81
2023/04/27 03:43:54;;;;;;;10.73;5.95;;;;;;;;;;5066581;28;20099;-81
2023/04/27 03:46:20;;;;;;;12.65;6.10;;;;;;;;;;5059763;28;20049;-81
2023/04/27 03:48:47;;;;;;;12.02;6.13;;;;;;;;;;5054261;28;20087;-82
2023/04/27 03:51:13;;;;;;;9.68;5.78;;;;;;;;;;5039753;28;20057;-82
2023/04/27 03:53:40;;;;;;;11.73;5.80;;;;;;;;;;5042685;28;20087;-81
2023/04/27 03:56:06;;;;;;;11.07;5.97;;;;;;;;;;5057561;28;20041;-81
2023/04/27 03:58:32;;;;;;;11.25;5.55;;;;;;;;;;5059304;28;20594;-83
2023/04/27 04:00:58;;;;;;;8.95;5.65;;;;;;;;;;5054235;28;20423;-83
2023/04/27 04:03:24;;;;;;;12.98;6.32;;;;;;;;;;5053594;28;20043;-82
2023/04/27 04:05:50;;;;;;;10.23;5.80;;;;;;;;;;5055352;28;20045;-81
2023/04/27 04:08:16;;;;;;;10.02;5.95;;;;;;;;;;5037788;28;20053;-81
2023/04/27 04:10:42;;;;;;;12.48;6.72;;;;;;;;;;5054524;28;20060;-83
2023/04/27 04:13:08;;;;;;;9.23;6.03;;;;;;;;;;5035842;28;20045;-81
2023/04/27 04:15:35;;;;;;;13.70;6.28;;;;;;;;;;5055121;28;20171;-80
2023/04/27 04:18:01;;;;;;;11.70;6.00;;;;;;;;;;5057532;28;20072;-84
2023/04/27 04:20:27;;;;;;;10.52;6.30;;;;;;;;;;5055990;28;20479;-83
2023/04/27 04:22:53;;;;;;;11.57;6.55;;;;;;;;;;5064589;28;20065;-81
2023/04/27 04:25:19;;;;;;;11.18;6.78;;;;;;;;;;5058257;28;20045;-82
2023/04/27 04:27:47;;;;;;;11.02;7.15;;;;;;;;;;5056904;28;20045;-83
2023/04/27 04:30:13;;;;;;;11.30;6.50;;;;;;;;;;5069786;28;20045;-83
2023/04/27 04:32:40;;;;;;;12.65;6.47;;;;;;;;;;5070200;28;20024;-83
2023/04/27 04:35:06;;;;;;;11.70;6.25;;;;;;;;;;5068374;28;20099;-82
2023/04/27 04:37:36;;;;;;;13.23;6.43;;;;;;;;;;5061168;28;20538;-81
2023/04/27 04:40:09;;;;;;;13.80;7.15;;;;;;;;;;5063836;28;20556;-81
2023/04/27 04:42:39;;;;;;;14.30;6.88;;;;;;;;;;5064147;28;20072;-81
2023/04/27 04:45:06;;;;;;;10.50;6.32;;;;;;;;;;5064215;28;20075;-82
2023/04/27 04:47:33;;;;;;;15.15;6.78;;;;;;;;;;5063239;28;20044;-82
2023/04/27 04:49:59;;;;;;;10.40;6.20;;;;;;;;;;5054371;28;20445;-81
2023/04/27 04:52:25;;;;;;;14.32;6.65;;;;;;;;;;5063048;28;20049;-80
2023/04/27 04:54:52;;;;;;;12.27;7.65;;;;;;;;;;5064947;28;20055;-81
2023/04/27 04:57:18;;;;;;;12.35;6.90;;;;;;;;;;5065439;28;20037;-82
2023/04/27 04:59:44;;;;;;;13.13;7.18;;;;;;;;;;5063846;28;20048;-81
2023/04/27 05:02:10;;;;;;;11.15;6.97;;;;;;;;;;5062288;28;20094;-81
2023/04/27 05:04:36;;;;;;;14.10;6.63;;;;;;;;;;5062731;28;20053;-81
2023/04/27 05:07:04;;;;;;;12.02;6.80;;;;;;;;;;5062321;28;20049;-82
2023/04/27 05:09:30;;;;;;;11.90;6.88;;;;;;;;;;5056024;28;20044;-81
2023/04/27 05:11:56;;;;;;;12.85;7.10;;;;;;;;;;5050142;28;20052;-81
2023/04/27 05:14:22;;;;;;;12.80;7.22;;;;;;;;;;5062582;28;20045;-81
2023/04/27 05:16:50;;;;;;;11.77;6.90;;;;;;;;;;5063841;28;20051;-83
2023/04/27 05:19:17;;;;;;;10.45;6.85;;;;;;;;;;5061668;28;20052;-82
2023/04/27 05:21:44;;;;;;;11.60;6.53;;;;;;;;;;5056050;28;20060;-81
2023/04/27 05:24:11;;;;;;;14.23;7.28;;;;;;;;;;5053821;28;20111;-84
2023/04/27 05:26:37;;;;;;;11.30;7.13;;;;;;;;;;5049527;28;20037;-82
2023/04/27 05:29:04;;;;;;;11.73;6.97;;;;;;;;;;5054451;28;20037;-82
2023/04/27 05:31:30;;;;;;;13.43;7.05;;;;;;;;;;5052189;28;20055;-82
2023/04/27 05:33:56;;;;;;;12.57;7.05;;;;;;;;;;5034048;28;20041;-81
2023/04/27 05:36:22;;;;;;;13.27;7.38;;;;;;;;;;5050825;28;20048;-82
2023/04/27 05:38:48;;;;;;;9.65;6.72;;;;;;;;;;5052898;28;20045;-83
2023/04/27 05:41:14;;;;;;;10.82;6.32;;;;;;;;;;5051747;28;20067;-82
2023/04/27 05:43:40;;;;;;;13.00;7.35;;;;;;;;;;5054003;28;20044;-82
2023/04/27 05:46:06;;;;;;;14.05;6.93;;;;;;;;;;5036775;28;20049;-82
2023/04/27 05:48:32;;;;;;;10.93;7.18;;;;;;;;;;5050313;28;20751;-84
2023/04/27 05:51:02;;;;;;;12.93;6.47;;;;;;;;;;5051993;28;20045;-83
2023/04/27 05:53:28;;;;;;;8.23;5.45;;;;;;;;;;5055125;28;20124;-82
2023/04/27 05:55:55;;;;;;;13.52;5.85;;;;;;;;;;5034253;28;20044;-83
2023/04/27 05:58:21;;;;;;;12.25;5.88;;;;;;;;;;5053416;28;20086;-83
2023/04/27 06:00:47;;;;;;;8.80;5.00;;;;;;;;;;5054989;28;20049;-82
2023/04/27 06:03:13;;;;;;;11.90;5.20;;;;;;;;;;5053854;28;20041;-80
2023/04/27 06:05:39;;;;;;;8.95;4.78;;;;;;;;;;5051574;28;20166;-81
2023/04/27 06:08:05;;;;;;;7.72;4.57;;;;;;;;;;5047797;28;20770;-81
2023/04/27 06:10:31;;;;;;;7.13;4.32;;;;;;;;;;5047433;28;20099;-82
2023/04/27 06:12:57;;;;;;;10.63;4.50;;;;;;;;;;5048146;28;20067;-83
2023/04/27 06:15:23;;;;;;;8.90;4.60;;;;;;;;;;5047342;28;20048;-82
2023/04/27 06:17:49;;;;;;;6.88;4.22;;;;;;;;;;5048251;28;20048;-82
2023/04/27 06:20:16;;;;;;;6.82;4.10;;;;;;;;;;5048227;28;20045;-82
2023/04/27 06:22:42;;;;;;;7.32;4.30;;;;;;;;;;5047941;28;20140;-82
2023/04/27 06:25:08;;;;;;;8.93;4.50;;;;;;;;;;5049308;28;20388;-83
2023/04/27 06:27:34;;;;;;;10.18;4.50;;;;;;;;;;5056503;28;20091;-82
2023/04/27 06:30:00;;;;;;;9.70;4.45;;;;;;;;;;5046817;28;20133;-81
2023/04/27 06:32:27;;;;;;;9.95;4.13;;;;;;;;;;5056726;28;20071;-82
2023/04/27 06:34:53;;;;;;;6.88;3.58;;;;;;;;;;5063700;28;20095;-82
2023/04/27 06:37:19;;;;;;;9.13;4.00;;;;;;;;;;5062724;28;20091;-82
2023/04/27 06:39:45;;;;;;;8.30;3.80;;;;;;;;;;5044173;28;20053;-82
2023/04/27 06:42:11;;;;;;;6.65;3.20;;;;;;;;;;5042863;28;20059;-81
2023/04/27 06:44:38;;;;;;;7.80;3.65;;;;;;;;;;5055230;28;20041;-82
2023/04/27 06:47:04;;;;;;;11.40;3.15;;;;;;;;;;5065575;28;20041;-81
2023/04/27 06:49:30;;;;;;;7.35;3.20;;;;;;;;;;5045073;28;20131;-80
2023/04/27 06:51:56;;;;;;;6.10;3.10;;;;;;;;;;5062254;28;20530;-82
2023/04/27 06:54:22;;;;;;;7.60;2.95;;;;;;;;;;5061564;28;20053;-80
2023/04/27 06:56:48;;;;;;;10.45;3.10;;;;;;;;;;5046445;28;20036;-81
2023/04/27 06:59:15;;;;;;;6.90;3.10;;;;;;;;;;5068566;28;20052;-81
2023/04/27 07:01:41;;;;;;;7.85;3.30;;;;;;;;;;5063335;28;20410;-83
2023/04/27 07:04:07;;;;;;;9.88;3.55;;;;;;;;;;5048529;28;20088;-82
2023/04/27 07:06:33;;;;;;;6.72;3.30;;;;;;;;;;5065705;28;20059;-82
2023/04/27 07:08:59;;;;;;;8.02;3.20;;;;;;;;;;5048513;28;20064;-82
2023/04/27 07:11:25;;;;;;;6.63;3.05;;;;;;;;;;5047124;28;20064;-82
2023/04/27 07:13:51;;;;;;;5.72;2.72;;;;;;;;;;5065992;28;20132;-81
2023/04/27 07:16:18;;;;;;;8.60;3.50;;;;;;;;;;5066274;28;20055;-82
2023/04/27 07:18:44;;;;;;;7.65;2.90;;;;;;;;;;5064220;28;20103;-81
2023/04/27 07:21:10;;;;;;;7.63;3.25;;;;;;;;;;5071822;28;20044;-82
2023/04/27 07:23:36;;;;;;;8.15;2.97;;;;;;;;;;5063410;28;20049;-82
2023/04/27 07:26:02;;;;;;;6.65;2.50;;;;;;;;;;5059364;28;20052;-81
2023/04/27 07:28:29;;;;;;;5.90;2.00;;;;;;;;;;5060440;28;20068;-80
2023/04/27 07:30:56;;;;;;;7.15;2.05;;;;;;;;;;5059834;28;20041;-82
2023/04/27 07:33:22;;;;;;;8.25;1.98;;;;;;;;;;5038831;28;20049;-81
2023/04/27 07:35:49;;;;;;;6.20;1.88;;;;;;;;;;5058963;28;20037;-82
2023/04/27 07:38:16;;;;;;;5.40;2.03;;;;;;;;;;5064414;28;20049;-82
2023/04/27 07:40:42;;;;;;;6.20;2.03;;;;;;;;;;5061176;28;20545;-83
2023/04/27 07:43:09;;;;;;;7.13;2.00;;;;;;;;;;5060204;28;20044;-81
2023/04/27 07:45:37;;;;;;;6.90;1.88;;;;;;;;;;5062997;28;20130;-81
2023/04/27 07:48:04;;;;;;;6.75;2.03;;;;;;;;;;5042471;28;20076;-81
2023/04/27 07:50:30;;;;;;;5.30;2.30;;;;;;;;;;5062398;28;20119;-83
2023/04/27 07:52:57;;;;;;;8.35;2.58;;;;;;;;;;5045080;28;20069;-81
2023/04/27 07:55:23;;;;;;;6.22;2.00;;;;;;;;;;5062347;28;20053;-80
2023/04/27 07:57:58;;;;;;;6.70;1.90;;;;;;;;;;5062045;28;20052;-82
2023/04/27 08:00:24;;;;;;;6.55;2.00;;;;;;;;;;5041826;28;20101;-80
2023/04/27 08:02:51;;;;;;;6.40;2.13;;;;;;;;;;5069091;28;20109;-82
2023/04/27 08:05:17;;;;;;;7.45;2.17;;;;;;;;;;5072457;28;20102;-82
2023/04/27 08:07:44;;;;;;;6.40;2.10;;;;;;;;;;5075577;28;20472;-81
2023/04/27 08:10:10;;;;;;;8.50;2.60;;;;;;;;;;5046132;28;20084;-82
2023/04/27 08:12:36;;;;;;;8.98;2.45;;;;;;;;;;5063704;28;20080;-80
2023/04/27 08:15:02;;;;;;;8.38;2.30;;;;;;;;;;5064008;28;20048;-81
2023/04/27 08:17:28;;;;;;;5.65;1.98;;;;;;;;;;5063233;28;20085;-81
2023/04/27 08:19:54;;;;;;;5.60;2.70;;;;;;;;;;5061995;28;20045;-81
2023/04/27 08:22:20;;;;;;;9.10;2.30;;;;;;;;;;5061687;28;20061;-81
2023/04/27 08:24:46;;;;;;;6.43;2.55;;;;;;;;;;5062606;28;20056;-81
2023/04/27 08:27:14;;;;;;;8.07;2.88;;;;;;;;;;5061054;28;20084;-82
2023/04/27 08:29:46;;;;;;;10.18;2.70;;;;;;;;;;5062800;28;20049;-82
2023/04/27 08:32:12;;;;;;;10.15;2.60;;;;;;;;;;5045409;28;20057;-81
2023/04/27 08:34:38;;;;;;;7.00;2.50;;;;;;;;;;5061373;28;20503;-82
2023/04/27 08:37:04;;;;;;;6.28;2.13;;;;;;;;;;5061697;28;20116;-82
2023/04/27 08:39:30;;;;;;;7.03;2.55;;;;;;;;;;5060452;28;20091;-81
2023/04/27 08:41:56;;;;;;;6.80;2.63;;;;;;;;;;5062434;28;21143;-81
2023/04/27 08:44:22;;;;;;;5.70;2.47;;;;;;;;;;5061341;28;20057;-82
2023/04/27 08:46:50;;;;;;;10.20;2.70;;;;;;;;;;5062049;28;20064;-81
2023/04/27 08:49:16;;;;;;;9.30;2.50;;;;;;;;;;5061907;28;20052;-81
2023/04/27 08:51:42;;;;;;;5.45;2.30;;;;;;;;;;5023016;28;20206;-81
2023/04/27 08:54:08;;;;;;;6.22;2.22;;;;;;;;;;5024976;28;20084;-82
2023/04/27 08:56:35;;;;;;;7.72;2.40;;;;;;;;;;5042431;28;20381;-81
2023/04/27 08:59:03;;;;;;;6.97;2.75;;;;;;;;;;5056376;28;20049;-82
2023/04/27 09:01:31;;;;;;;7.20;2.65;;;;;;;;;;5064114;28;20041;-82
2023/04/27 09:04:01;;;;;;;7.93;2.50;;;;;;;;;;5046385;28;20051;-81
2023/04/27 09:06:30;;;;;;;7.78;2.80;;;;;;;;;;5044258;28;20194;-81
2023/04/27 09:08:56;;;;;;;9.90;2.65;;;;;;;;;;5061276;28;20045;-82
2023/04/27 09:11:44;;;;;;;7.00;2.90;;;;;;;;;;5059475;28;20048;-81
2023/04/27 09:14:20;;;;;;;8.70;2.70;;;;;;;;;;5042890;28;20045;-81
2023/04/27 09:16:54;;;;;;;5.82;2.80;;;;;;;;;;5056823;28;20048;-81
2023/04/27 09:19:24;;;;;;;8.70;2.72;;;;;;;;;;5044167;28;20131;-82
2023/04/27 09:21:51;;;;;;;8.40;3.22;;;;;;;;;;5061087;28;20076;-82
2023/04/27 09:24:17;;;;;;;7.22;3.33;;;;;;;;;;5055945;28;20460;-82
2023/04/27 09:26:48;;;;;;;7.00;2.65;;;;;;;;;;5042622;28;20061;-81
2023/04/27 09:29:15;;;;;;;;;;;;;;;;;;5044027;28;20505;-82
2023/04/27 09:31:41;;;;;;;8.57;4.05;;;;;;;;;;5062075;28;19920;-82
2023/04/27 09:34:07;;;;;;;12.98;3.70;;;;;;;;;;5061812;28;20060;-81
2023/04/27 09:36:33;;;;;;;7.63;3.08;;;;;;;;;;5061863;28;20041;-81
2023/04/27 09:39:03;;;;;;;7.15;3.22;;;;;;;;;;5060540;28;20044;-82
2023/04/27 09:41:30;;;;;;;8.57;3.50;;;;;;;;;;5052330;28;20045;-82
2023/04/27 09:43:57;;;;;;;8.57;2.97;;;;;;;;;;5061067;28;20049;-82
2023/04/27 09:46:24;;;;;;;7.18;3.15;;;;;;;;;;5059068;28;20040;-82
2023/04/27 09:48:52;;;;;;;6.25;3.33;;;;;;;;;;5052059;28;20157;-82
2023/04/27 09:51:18;;;;;;;9.25;3.65;;;;;;;;;;5059371;28;20072;-81
2023/04/27 09:53:51;;;;;;;9.75;3.35;;;;;;;;;;5061247;28;20048;-81
2023/04/27 09:56:27;;;;;;;10.60;3.60;;;;;;;;;;5061440;28;20044;-81
2023/04/27 09:59:02;;;;;;;9.85;3.20;;;;;;;;;;5061424;28;20580;-82
2023/04/27 10:01:48;;;;;;;7.03;3.78;;;;;;;;;;5056881;28;20037;-82
2023/04/27 10:04:33;;;;;;;7.45;3.92;;;;;;;;;;5057445;28;20044;-82
2023/04/27 10:06:59;;;;;;;9.90;3.40;;;;;;;;;;5057487;28;20068;-81
2023/04/27 10:09:26;;;;;;;8.02;3.85;;;;;;;;;;5060872;28;20080;-80
2023/04/27 10:11:53;;;;;;;6.75;3.53;;;;;;;;;;5059702;28;20053;-82
2023/04/27 10:14:21;;;;;;;8.93;3.67;;;;;;;;;;5058830;28;20041;-82
2023/04/27 10:16:49;;;;;;;9.20;3.88;;;;;;;;;;5059647;28;20060;-81
2023/04/27 10:19:15;;;;;;;8.65;3.88;;;;;;;;;;5059830;28;20095;-81
2023/04/27 10:21:52;;;;;;;8.27;3.95;;;;;;;;;;5055004;28;20041;-81
2023/04/27 10:24:18;;;;;;;8.07;4.00;;;;;;;;;;5049573;28;20139;-82
2023/04/27 10:26:50;;;;;;;9.40;3.53;;;;;;;;;;5047067;28;20175;-82
2023/04/27 10:29:18;;;;;;;8.52;3.80;;;;;;;;;;5053641;28;20033;-83
2023/04/27 10:31:47;;;;;;;8.27;4.00;;;;;;;;;;5045768;28;20147;-82
2023/04/27 10:34:17;;;;;;;10.45;4.30;;;;;;;;;;5029718;28;20049;-81
2023/04/27 10:36:43;;;;;;;9.75;3.97;;;;;;;;;;5046571;28;20166;-82
2023/04/27 10:39:21;;;;;;;6.85;3.72;;;;;;;;;;5045993;28;20041;-82
2023/04/27 10:41:50;;;;;;;8.82;3.72;;;;;;;;;;5047357;28;20136;-82
2023/04/27 10:44:17;;;;;;;6.63;3.65;;;;;;;;;;5052402;28;20045;-82
2023/04/27 10:46:53;;;;;;;8.70;4.05;;;;;;;;;;5051119;28;20052;-81
2023/04/27 10:49:19;;;;;;;6.45;3.85;;;;;;;;;;5061254;28;20054;-82
2023/04/27 10:51:46;;;;;;;11.10;4.43;;;;;;;;;;5062725;28;20526;-81
2023/04/27 10:54:12;;;;;;;6.60;3.90;;;;;;;;;;5059900;28;20041;-81
2023/04/27 10:56:39;;;;;;;10.40;4.28;;;;;;;;;;5063275;28;20045;-81
2023/04/27 10:59:07;;;;;;;7.70;3.70;;;;;;;;;;5046028;28;20467;-81
2023/04/27 11:01:33;;;;;;;11.13;4.30;;;;;;;;;;5062768;28;20055;-81
2023/04/27 11:04:00;;;;;;;8.57;3.90;;;;;;;;;;5063476;28;20109;-80
2023/04/27 11:06:29;;;;;;;9.57;4.45;;;;;;;;;;5063942;28;20045;-81
2023/04/27 11:08:55;;;;;;;7.05;3.85;;;;;;;;;;5066415;28;20458;-81
2023/04/27 11:11:21;;;;;;;9.13;4.10;;;;;;;;;;5045941;28;20083;-81
2023/04/27 11:13:48;;;;;;;8.95;4.40;;;;;;;;;;5058555;28;20107;-82
2023/04/27 11:16:15;;;;;;;8.65;4.10;;;;;;;;;;5060718;28;20096;-82
2023/04/27 11:18:42;;;;;;;9.18;3.97;;;;;;;;;;5056143;28;20033;-81
2023/04/27 11:21:15;;;;;;;10.27;4.28;;;;;;;;;;5058946;28;20049;-81
2023/04/27 11:23:42;;;;;;;13.02;7.18;;;;;;;;;;5058244;28;20124;-81
2023/04/27 11:26:09;;;;;;;12.75;9.45;;;;;;;;;;5061580;28;20071;-81
2023/04/27 11:28:35;;;;;;;8.80;4.80;;;;;;;;;;5058895;28;20415;-81
2023/04/27 11:31:01;;;;;;;8.15;5.30;;;;;;;;;;5061557;28;20060;-82
2023/04/27 11:33:27;;;;;;;7.78;4.32;;;;;;;;;;5046675;28;20091;-81
2023/04/27 11:35:55;;;;;;;8.00;4.10;;;;;;;;;;5065509;28;20097;-81
2023/04/27 11:38:21;;;;;;;8.27;4.47;;;;;;;;;;5061175;28;20041;-82
2023/04/27 11:40:58;;;;;;;7.90;4.00;;;;;;;;;;5063426;28;20044;-82
2023/04/27 11:43:27;;;;;;;9.60;4.20;;;;;;;;;;5057261;28;20040;-81
2023/04/27 11:45:55;;;;;;;12.07;4.95;;;;;;;;;;5019489;28;20829;-82
2023/04/27 11:48:22;;;;;;;10.07;4.05;;;;;;;;;;5060887;28;20123;-82
2023/04/27 11:50:49;;;;;;;9.50;4.10;;;;;;;;;;5053913;28;20045;-81
2023/04/27 11:53:16;;;;;;;7.95;4.20;;;;;;;;;;5064910;28;20094;-80
2023/04/27 11:55:42;;;;;;;8.13;4.28;;;;;;;;;;5063090;28;20052;-81
2023/04/27 11:58:17;;;;;;;6.90;4.00;;;;;;;;;;5063853;28;20051;-81
2023/04/27 12:00:44;;;;;;;10.80;4.20;;;;;;;;;;5028037;28;20056;-82
2023/04/27 12:03:10;;;;;;;7.22;4.18;;;;;;;;;;5060622;28;20956;-81
2023/04/27 12:05:36;;;;;;;9.40;4.63;;;;;;;;;;5063957;28;20052;-81
2023/04/27 12:08:02;;;;;;;8.07;4.43;;;;;;;;;;5061739;28;20071;-82
2023/04/27 12:10:28;;;;;;;8.15;4.47;;;;;;;;;;5057083;28;20069;-82
2023/04/27 12:12:54;;;;;;;8.85;3.92;;;;;;;;;;5057493;28;20037;-81
2023/04/27 12:15:20;;;;;;;8.45;4.03;;;;;;;;;;5053609;28;20060;-81
2023/04/27 12:17:46;;;;;;;9.50;4.68;;;;;;;;;;5066798;28;20045;-80
2023/04/27 12:20:13;;;;;;;8.93;4.15;;;;;;;;;;5062289;28;20052;-81
2023/04/27 12:22:40;;;;;;;9.35;4.50;;;;;;;;;;5073879;28;20060;-81
2023/04/27 12:25:06;;;;;;;8.15;3.75;;;;;;;;;;5042630;28;20136;-81
2023/04/27 12:27:32;;;;;;;7.55;4.15;;;;;;;;;;5065538;28;20049;-82
2023/04/27 12:29:59;;;;;;;9.65;4.22;;;;;;;;;;5076773;28;20041;-81
2023/04/27 12:32:26;;;;;;;7.68;4.00;;;;;;;;;;5065426;28;20091;-82
2023/04/27 12:34:52;;;;;;;10.38;4.28;;;;;;;;;;5065485;28;20511;-81
2023/04/27 12:37:20;;;;;;;9.75;4.43;;;;;;;;;;5062769;28;20052;-82
2023/04/27 12:39:46;;;;;;;8.18;4.05;;;;;;;;;;5064762;28;20052;-81
2023/04/27 12:42:12;;;;;;;6.95;3.83;;;;;;;;;;5064790;28;20045;-82
2023/04/27 12:44:38;;;;;;;9.13;4.20;;;;;;;;;;5044528;28;20506;-82
2023/04/27 12:47:04;;;;;;;7.82;3.70;;;;;;;;;;5064371;28;20091;-81
2023/04/27 12:49:30;;;;;;;7.15;3.53;;;;;;;;;;5020733;28;20055;-83
2023/04/27 12:51:57;;;;;;;8.43;4.07;;;;;;;;;;5063207;28;20049;-81
2023/04/27 12:54:23;;;;;;;8.75;5.30;;;;;;;;;;5046916;28;20052;-81
2023/04/27 12:56:50;;;;;;;9.10;4.25;;;;;;;;;;5063443;28;20040;-82
2023/04/27 12:59:16;;;;;;;10.18;3.83;;;;;;;;;;5061635;28;20147;-81
2023/04/27 13:01:42;;;;;;;7.75;4.40;;;;;;;;;;5063292;28;20076;-81
2023/04/27 13:04:08;;;;;;;8.43;3.85;;;;;;;;;;5063602;28;20048;-81
2023/04/27 13:06:35;;;;;;;7.82;3.67;;;;;;;;;;5061961;28;20041;-81
2023/04/27 13:09:01;;;;;;;7.82;3.83;;;;;;;;;;5064445;28;20116;-80
2023/04/27 13:11:27;;;;;;;8.70;4.10;;;;;;;;;;5061594;28;20056;-80
2023/04/27 13:13:56;;;;;;;9.00;4.05;;;;;;;;;;5048981;28;20041;-81
2023/04/27 13:16:23;;;;;;;10.20;4.13;;;;;;;;;;5066903;28;20538;-82
2023/04/27 13:18:51;;;;;;;9.35;4.20;;;;;;;;;;5048167;28;20056;-82
2023/04/27 13:21:17;;;;;;;8.98;4.30;;;;;;;;;;5062983;28;20045;-81
2023/04/27 13:23:43;;;;;;;8.20;4.20;;;;;;;;;;5038707;28;20094;-82
2023/04/27 13:26:10;;;;;;;7.93;4.00;;;;;;;;;;5034953;28;20049;-81
2023/04/27 13:28:36;;;;;;;7.22;3.80;;;;;;;;;;5061934;28;20067;-81
2023/04/27 13:31:02;;;;;;;7.35;3.67;;;;;;;;;;5063758;28;20041;-82
2023/04/27 13:33:29;;;;;;;6.40;3.78;;;;;;;;;;5060539;28;20456;-82
2023/04/27 13:35:55;;;;;;;8.57;4.60;;;;;;;;;;5062381;28;20135;-81
2023/04/27 13:38:21;;;;;;;8.15;4.40;;;;;;;;;;5040375;28;20142;-82
2023/04/27 13:40:47;;;;;;;8.93;4.18;;;;;;;;;;5062240;28;20045;-81
2023/04/27 13:43:13;;;;;;;8.85;3.85;;;;;;;;;;5062755;28;20056;-82
2023/04/27 13:45:41;;;;;;;7.45;3.92;;;;;;;;;;5057403;28;20479;-81
2023/04/27 13:48:07;;;;;;;9.27;4.25;;;;;;;;;;5058184;28;20044;-81
2023/04/27 13:50:33;;;;;;;8.55;4.75;;;;;;;;;;5059190;28;20037;-82
2023/04/27 13:53:01;;;;;;;6.70;3.65;;;;;;;;;;5060434;28;20041;-81
2023/04/27 13:55:27;;;;;;;8.85;4.18;;;;;;;;;;5058172;28;20055;-81
2023/04/27 13:57:53;;;;;;;9.13;4.63;;;;;;;;;;5060343;28;20383;-81
2023/04/27 14:00:19;;;;;;;8.90;4.13;;;;;;;;;;5060053;28;20046;-81
2023/04/27 14:02:46;;;;;;;9.43;4.10;;;;;;;;;;5060281;28;20051;-82
2023/04/27 14:05:12;;;;;;;9.85;4.57;;;;;;;;;;5060296;28;20445;-82
2023/04/27 14:07:38;;;;;;;7.72;4.35;;;;;;;;;;5061140;28;20079;-81
2023/04/27 14:10:04;;;;;;;8.48;4.10;;;;;;;;;;5062838;28;20093;-81
2023/04/27 14:12:31;;;;;;;10.05;4.38;;;;;;;;;;5064441;28;20052;-81
2023/04/27 14:14:57;;;;;;;11.45;4.55;;;;;;;;;;5050898;28;20471;-83
2023/04/27 14:17:23;;;;;;;8.27;4.43;;;;;;;;;;5041578;28;20104;-82
2023/04/27 14:19:49;;;;;;;9.52;3.83;;;;;;;;;;5057019;28;20037;-81
2023/04/27 14:22:15;;;;;;;9.00;4.60;;;;;;;;;;5056253;28;20056;-82
2023/04/27 14:24:41;;;;;;;7.45;4.40;;;;;;;;;;5052707;28;20124;-81
2023/04/27 14:27:07;;;;;;;9.13;4.72;;;;;;;;;;5060712;28;20045;-81
2023/04/27 14:29:33;;;;;;;8.35;4.70;;;;;;;;;;5060324;28;20049;-82
2023/04/27 14:31:59;;;;;;;12.05;5.50;;;;;;;;;;5044507;28;20088;-82
2023/04/27 14:34:25;;;;;;;13.13;5.55;;;;;;;;;;5063404;28;20052;-83
2023/04/27 14:36:51;;;;;;;8.43;5.05;;;;;;;;;;5063246;28;20055;-82
2023/04/27 14:39:17;;;;;;;8.90;5.07;;;;;;;;;;5060929;28;20070;-82